createdAt,value
2022-09-25T00:03:18.710Z,1.00
2022-09-25T00:08:22.901Z,3.50
2022-09-25T00:13:28.259Z,1.00
2022-09-25T00:18:51.749Z,1.00
2022-09-25T00:23:56.942Z,1.00
2022-09-25T00:29:03.087Z,1.00
2022-09-25T00:34:08.536Z,1.00
2022-09-25T00:39:14.012Z,1.00
2022-09-25T00:44:49.547Z,1.00
2022-09-25T00:49:57.313Z,1.00
2022-09-25T00:55:07.397Z,1.00
2022-09-25T01:00:14.159Z,1.00
2022-09-25T01:05:22.209Z,1.00
2022-09-25T01:10:28.065Z,1.00
2022-09-25T01:15:39.072Z,1.00
2022-09-25T01:21:04.203Z,1.00
2022-09-25T01:26:29.934Z,1.00
2022-09-25T01:31:37.943Z,1.00
2022-09-25T01:36:58.519Z,1.00
2022-09-25T01:42:21.419Z,1.00
2022-09-25T01:47:29.958Z,1.00
2022-09-25T01:52:38.213Z,1.00
2022-09-25T01:57:50.262Z,1.00
2022-09-25T02:03:03.784Z,1.00
2022-09-25T02:08:12.441Z,1.00
2022-09-25T02:13:20.344Z,1.00
2022-09-25T02:18:44.717Z,1.00
2022-09-25T02:24:04.753Z,1.00
2022-09-25T02:29:10.805Z,1.00
2022-09-25T02:34:16.962Z,1.00
2022-09-25T02:39:25.744Z,1.00
2022-09-25T02:44:37.396Z,1.00
2022-09-25T02:49:57.438Z,1.00
2022-09-25T02:55:11.261Z,1.00
2022-09-25T03:00:16.780Z,1.00
2022-09-25T03:05:23.591Z,1.00
2022-09-25T03:10:31.481Z,1.00
2022-09-25T03:15:37.154Z,1.00
2022-09-25T03:20:43.429Z,1.00
2022-09-25T03:25:50.250Z,1.00
2022-09-25T03:31:01.406Z,74.30
2022-09-25T03:36:10.861Z,10.80
2022-09-25T03:41:21.338Z,1.00
2022-09-25T03:46:32.585Z,1.00
2022-09-25T03:51:38.974Z,14.70
2022-09-25T03:56:44.493Z,1.00
2022-09-25T04:01:49.891Z,1.00
2022-09-25T04:06:56.912Z,18.80
2022-09-25T04:12:03.257Z,5.40
2022-09-25T04:17:08.176Z,1.00
2022-09-25T04:22:15.565Z,1.00
2022-09-25T04:27:23.805Z,1.00
2022-09-25T04:32:46.216Z,1.00
2022-09-25T04:37:51.109Z,37.10
2022-09-25T04:43:00.544Z,70.20
2022-09-25T04:48:06.583Z,94.00
2022-09-25T04:53:13.190Z,21.70
2022-09-25T04:58:19.230Z,93.60
2022-09-25T05:03:24.788Z,99.90
2022-09-25T05:08:30.019Z,99.90
2022-09-25T05:13:35.578Z,83.30
2022-09-25T05:18:40.759Z,24.00
2022-09-25T05:23:46.552Z,80.00
2022-09-25T05:28:52.286Z,99.90
2022-09-25T05:33:57.596Z,99.90
2022-09-25T05:39:03.280Z,99.90
2022-09-25T05:44:09.996Z,99.90
2022-09-25T05:49:15.875Z,99.90
2022-09-25T05:54:20.851Z,99.90
2022-09-25T05:59:25.710Z,99.90
2022-09-25T06:04:30.997Z,99.90
2022-09-25T06:09:37.345Z,99.90
2022-09-25T06:14:43.246Z,99.90
2022-09-25T06:19:48.649Z,99.90
2022-09-25T06:24:54.175Z,99.90
2022-09-25T06:29:59.276Z,99.90
2022-09-25T06:35:04.856Z,94.70
2022-09-25T06:40:10.466Z,99.90
2022-09-25T06:45:16.482Z,38.00
2022-09-25T06:50:21.886Z,1.00
2022-09-25T06:55:32.468Z,1.00
2022-09-25T07:00:37.882Z,1.00
2022-09-25T07:05:44.478Z,1.00
2022-09-25T07:10:51.819Z,1.00
2022-09-25T07:15:59.324Z,1.00
2022-09-25T07:21:07.431Z,1.00
2022-09-25T07:26:19.506Z,1.00
2022-09-25T07:31:27.459Z,1.00
2022-09-25T07:36:33.941Z,1.00
2022-09-25T07:41:39.090Z,1.00
2022-09-25T07:46:45.052Z,1.00
2022-09-25T07:51:50.308Z,1.00
2022-09-25T07:56:56.043Z,1.00
2022-09-25T08:02:03.744Z,1.00
2022-09-25T08:07:10.110Z,1.00
2022-09-25T08:12:15.378Z,1.00
2022-09-25T08:17:22.659Z,1.00
2022-09-25T08:22:27.902Z,1.00
2022-09-25T08:27:38.587Z,1.00
2022-09-25T08:32:43.694Z,99.90
2022-09-25T08:37:50.036Z,99.90
2022-09-25T08:42:57.018Z,99.90
2022-09-25T08:48:19.775Z,99.90
2022-09-25T08:53:26.384Z,99.90
2022-09-25T08:58:34.826Z,99.90
2022-09-25T09:03:51.577Z,99.90
2022-09-25T09:09:11.033Z,99.90
2022-09-25T09:14:22.251Z,99.90
2022-09-25T09:19:28.107Z,99.90
2022-09-25T09:24:42.263Z,99.90
2022-09-25T09:30:14.800Z,99.90
2022-09-25T09:35:35.030Z,99.90
2022-09-25T09:40:58.789Z,99.90
2022-09-25T09:46:38.218Z,99.90
2022-09-25T09:51:55.537Z,99.90
2022-09-25T09:57:04.275Z,99.90
2022-09-25T10:02:31.189Z,99.90
2022-09-25T10:07:39.706Z,99.90
2022-09-25T10:12:49.190Z,99.90
2022-09-25T10:17:56.763Z,99.90
2022-09-25T10:23:05.565Z,99.90
2022-09-25T10:28:28.917Z,97.00
2022-09-25T10:33:35.659Z,98.80
2022-09-25T10:38:49.020Z,99.30
2022-09-25T10:43:59.269Z,99.90
2022-09-25T10:49:34.905Z,99.90
2022-09-25T10:54:44.854Z,99.90
2022-09-25T10:59:50.794Z,99.90
2022-09-25T11:04:57.950Z,99.90
2022-09-25T11:10:04.120Z,99.90
2022-09-25T11:15:13.917Z,99.90
2022-09-25T11:20:32.263Z,99.90
2022-09-25T11:25:50.342Z,99.90
2022-09-25T11:30:58.502Z,99.90
2022-09-25T11:36:16.566Z,99.90
2022-09-25T11:41:27.925Z,99.90
2022-09-25T11:46:51.204Z,99.90
2022-09-25T11:52:05.952Z,99.90
2022-09-25T11:57:15.065Z,99.90
2022-09-25T12:02:26.421Z,99.90
2022-09-25T12:07:52.296Z,99.90
2022-09-25T12:13:14.813Z,99.90
2022-09-25T12:18:40.685Z,99.90
2022-09-25T12:23:59.091Z,99.90
2022-09-25T12:29:29.477Z,99.90
2022-09-25T12:34:52.605Z,99.90
2022-09-25T12:40:03.824Z,99.90
2022-09-25T12:45:44.106Z,99.90
2022-09-25T12:51:02.773Z,99.90
2022-09-25T12:56:16.043Z,99.90
2022-09-25T13:01:30.058Z,99.90
2022-09-25T13:06:52.015Z,99.90
2022-09-25T13:12:03.406Z,99.90
2022-09-25T13:17:13.801Z,99.90
2022-09-25T13:22:24.733Z,99.90
2022-09-25T13:27:37.565Z,99.90
2022-09-25T13:32:44.607Z,99.90
2022-09-25T13:37:52.720Z,99.90
2022-09-25T13:43:01.716Z,99.90
2022-09-25T13:48:16.215Z,99.90
2022-09-25T13:53:24.931Z,99.90
2022-09-25T13:58:34.859Z,99.90
2022-09-25T14:03:46.519Z,99.90
2022-09-25T14:08:55.816Z,99.90
2022-09-25T14:14:04.216Z,99.90
2022-09-25T14:19:12.401Z,99.90
2022-09-25T14:24:28.667Z,99.90
2022-09-25T14:29:42.863Z,99.90
2022-09-25T14:35:07.599Z,99.90
2022-09-25T14:40:35.338Z,99.90
2022-09-25T14:46:05.313Z,99.90
2022-09-25T14:51:14.929Z,99.90
2022-09-25T14:56:21.768Z,99.90
2022-09-25T15:01:30.061Z,99.90
2022-09-25T15:06:39.509Z,99.90
2022-09-25T15:11:45.321Z,99.90
2022-09-25T15:17:09.095Z,1.00
2022-09-25T15:22:21.840Z,1.00
2022-09-25T15:27:28.370Z,1.00
2022-09-25T15:32:39.535Z,1.00
2022-09-25T15:37:45.907Z,1.00
2022-09-25T15:42:51.215Z,1.00
2022-09-25T15:47:56.937Z,1.00
2022-09-25T15:53:03.228Z,1.00
2022-09-25T15:58:11.177Z,1.00
2022-09-25T16:03:40.273Z,1.00
2022-09-25T16:08:47.886Z,1.00
2022-09-25T16:13:55.038Z,1.00
2022-09-25T16:19:23.789Z,1.00
2022-09-25T16:24:31.052Z,1.00
2022-09-25T16:29:40.524Z,1.00
2022-09-25T16:34:51.615Z,1.00
2022-09-25T16:40:20.697Z,1.00
2022-09-25T16:45:29.740Z,1.00
2022-09-25T16:50:37.967Z,1.00
2022-09-25T16:55:49.491Z,25.90
2022-09-25T17:00:54.866Z,99.90
2022-09-25T17:06:00.426Z,99.90
2022-09-25T17:11:05.915Z,99.90
2022-09-25T17:16:12.399Z,96.20
2022-09-25T17:21:19.557Z,57.40
2022-09-25T17:26:26.481Z,89.00
2022-09-25T17:31:32.154Z,88.90
2022-09-25T17:36:38.270Z,99.90
2022-09-25T17:41:46.256Z,99.90
2022-09-25T17:46:56.031Z,99.90
2022-09-25T17:52:01.112Z,99.90
2022-09-25T17:57:06.753Z,99.90
2022-09-25T18:02:17.030Z,99.90
2022-09-25T18:07:24.094Z,99.90
2022-09-25T18:12:29.743Z,99.90
2022-09-25T18:17:35.222Z,99.90
2022-09-25T18:22:41.911Z,99.90
2022-09-25T18:27:47.693Z,99.90
2022-09-25T18:32:56.574Z,99.90
2022-09-25T18:38:02.178Z,99.90
2022-09-25T18:43:07.360Z,99.90
2022-09-25T18:48:12.514Z,99.90
2022-09-25T18:53:19.203Z,99.90
2022-09-25T18:58:24.740Z,99.90
2022-09-25T19:03:31.163Z,99.90
2022-09-25T19:08:38.172Z,99.90
2022-09-25T19:13:43.592Z,99.90
2022-09-25T19:18:50.351Z,99.90
2022-09-25T19:23:56.262Z,99.90
2022-09-25T19:29:02.292Z,99.90
2022-09-25T19:34:07.748Z,99.90
2022-09-25T19:39:13.786Z,99.90
2022-09-25T19:44:20.066Z,99.90
2022-09-25T19:49:24.986Z,99.90
2022-09-25T19:54:30.494Z,99.90
2022-09-25T19:59:36.983Z,99.90
2022-09-25T20:04:43.628Z,99.90
2022-09-25T20:09:49.356Z,99.90
2022-09-25T20:14:55.529Z,99.90
2022-09-25T20:20:02.658Z,99.90
2022-09-25T20:25:08.805Z,99.90
2022-09-25T20:30:14.440Z,99.90
2022-09-25T20:35:20.125Z,99.90
2022-09-25T20:40:25.052Z,99.90
2022-09-25T20:45:30.780Z,99.90
2022-09-25T20:50:37.123Z,99.90
2022-09-25T20:55:41.157Z,99.90
2022-09-25T21:00:48.216Z,99.90
2022-09-25T21:05:53.524Z,99.90
2022-09-25T21:11:01.977Z,99.90
2022-09-25T21:16:10.342Z,99.90
2022-09-25T21:21:16.810Z,99.90
2022-09-25T21:26:23.934Z,99.90
2022-09-25T21:31:32.433Z,99.90
2022-09-25T21:36:39.627Z,99.90
2022-09-25T21:41:44.262Z,99.90
2022-09-25T21:46:49.436Z,99.90
2022-09-25T21:51:56.379Z,99.90
2022-09-25T21:57:01.799Z,99.90
2022-09-25T22:02:06.701Z,99.90
2022-09-25T22:07:11.799Z,99.90
2022-09-25T22:12:16.902Z,99.90
2022-09-25T22:17:22.514Z,99.90
2022-09-25T22:22:27.985Z,99.90
2022-09-25T22:27:32.844Z,99.90
2022-09-25T22:32:38.695Z,99.90
2022-09-25T22:37:44.563Z,99.90
2022-09-25T22:42:50.768Z,99.90
2022-09-25T22:47:55.939Z,99.90
2022-09-25T22:53:00.948Z,99.90
2022-09-25T22:58:07.660Z,99.90
2022-09-25T23:03:12.897Z,99.90
2022-09-25T23:08:18.233Z,99.90
2022-09-25T23:13:24.157Z,99.90
2022-09-25T23:18:30.849Z,99.90
2022-09-25T23:23:36.323Z,99.90
2022-09-25T23:28:42.360Z,99.90
2022-09-25T23:33:48.287Z,99.90
2022-09-25T23:38:56.049Z,99.90
2022-09-25T23:44:02.645Z,99.90
2022-09-25T23:49:08.945Z,99.90
2022-09-25T23:54:13.861Z,99.90
2022-09-25T23:59:19.829Z,99.90
